Meath Environmental Platform

Observations for Trim Market St

Time AQI Temp °C Hum % Pres Pa CO μg/m³ H₂S μg/m³ NO μg/m³ NO₂ μg/m³ O₃ μg/m³ SO₂ μg/m³ PM1 μg/m³ PM2.5 μg/m³ PM10 μg/m³
Friday 21 August 2026
11:34 2 23.3 43 65,103 0.07 0 1.73 11.44 68.13 0 0 2.22 2.44
11:33 2 23.3 43 65,103 0 0 1.37 11.52 67.77 0 0 3.79 4.17
11:32 2 23.3 43 65,082 0.03 0 1.55 12.19 74.79 0 0 2.74 3.01
11:31 2 23.3 44 65,074 0.13 0 1.7 11.29 69.85 0 0 2.2 2.42
11:30 2 23.3 44 65,070 0.09 0 1.69 11.13 65.52 0 0 2.2 2.42
11:29 2 23.3 44 65,060 0.13 0 1.73 12.8 64.31 0 0 2.19 2.41
11:27 2 23.2 44 64,925 0.21 0 1.72 20.96 63.12 0 0 3.76 4.13
11:25 2 23.2 44 64,896 0.39 0 1.64 18.57 65.39 0 0 2.18 2.4
11:24 2 23.1 44 64,858 0.72 0.12 1.62 79.62 34.99 0 0 2.71 2.98
11:23 2 23.1 44 64,815 0.7 0 1.7 135.72 2.57 0 0.71 3.22 3.55
11:22 2 23 44 64,821 0.04 0 1.39 14.34 66.3 0 0 3.22 3.54
11:21 2 23 44 64,795 0.04 0 1.37 12.36 70.15 0 0 2.17 2.39
11:20 2 22.9 45 64,734 0.1 0 1.48 12.95 64.69 0 0 2.68 2.95
11:19 2 22.9 45 64,657 0.03 0 1.67 18.99 80.03 0 0 2.15 2.36
11:17 2 22.7 45 64,560 0.07 0 1.76 17.07 67.3 0 0 2.13 2.34
11:15 2 22.5 46 64,454 0.06 0 1.78 26.93 73.25 0 0 2.13 2.34
11:13 2 22.3 46 64,423 0 0 1.23 11.9 81.93 0 0.71 3.68 4.05
11:10 2 22.1 46 64,356 0.09 0 1.4 18.39 69.62 0 0 2.1 2.31
11:06 2 21.9 46 64,060 0.17 0 2.06 12.63 65.97 0 0 2.09 2.3
11:00 2 21.6 46 63,701 0.07 0 1.43 29.88 86.21 0 0 2.1 2.31